sensor_id;sensor_type;location;lat;lon;timestamp;P1;durP1;ratioP1;P2;durP2;ratioP2
78308;SDS011;67566;42.022;21.356;2023-08-31T00:02:05;11.10;;;5.63;;
78308;SDS011;67566;42.022;21.356;2023-08-31T00:04:31;11.38;;;5.95;;
78308;SDS011;67566;42.022;21.356;2023-08-31T00:06:57;7.57;;;4.38;;
78308;SDS011;67566;42.022;21.356;2023-08-31T00:09:23;10.75;;;4.72;;
78308;SDS011;67566;42.022;21.356;2023-08-31T00:11:49;10.80;;;5.03;;
78308;SDS011;67566;42.022;21.356;2023-08-31T00:14:15;9.25;;;4.97;;
78308;SDS011;67566;42.022;21.356;2023-08-31T00:16:41;9.43;;;4.95;;
78308;SDS011;67566;42.022;21.356;2023-08-31T00:19:07;8.13;;;4.47;;
78308;SDS011;67566;42.022;21.356;2023-08-31T00:21:33;8.63;;;4.70;;
78308;SDS011;67566;42.022;21.356;2023-08-31T00:23:58;11.30;;;4.80;;
78308;SDS011;67566;42.022;21.356;2023-08-31T00:26:24;10.57;;;5.13;;
78308;SDS011;67566;42.022;21.356;2023-08-31T00:28:50;10.25;;;4.40;;
78308;SDS011;67566;42.022;21.356;2023-08-31T00:31:15;8.55;;;4.88;;
78308;SDS011;67566;42.022;21.356;2023-08-31T00:33:41;12.50;;;4.57;;
78308;SDS011;67566;42.022;21.356;2023-08-31T00:36:06;8.18;;;4.38;;
78308;SDS011;67566;42.022;21.356;2023-08-31T00:38:33;10.70;;;4.50;;
78308;SDS011;67566;42.022;21.356;2023-08-31T00:41:00;9.95;;;4.47;;
78308;SDS011;67566;42.022;21.356;2023-08-31T00:43:25;9.60;;;4.15;;
78308;SDS011;67566;42.022;21.356;2023-08-31T00:45:52;10.07;;;4.57;;
78308;SDS011;67566;42.022;21.356;2023-08-31T00:48:24;9.50;;;4.30;;
78308;SDS011;67566;42.022;21.356;2023-08-31T00:50:49;8.07;;;4.28;;
78308;SDS011;67566;42.022;21.356;2023-08-31T00:53:15;8.55;;;4.57;;
78308;SDS011;67566;42.022;21.356;2023-08-31T00:55:42;7.90;;;4.20;;
78308;SDS011;67566;42.022;21.356;2023-08-31T00:58:09;8.93;;;4.25;;
78308;SDS011;67566;42.022;21.356;2023-08-31T01:03:17;7.63;;;4.15;;
78308;SDS011;67566;42.022;21.356;2023-08-31T01:05:55;7.97;;;4.47;;
78308;SDS011;67566;42.022;21.356;2023-08-31T01:13:30;11.10;;;4.30;;
78308;SDS011;67566;42.022;21.356;2023-08-31T01:15:59;9.70;;;5.00;;
78308;SDS011;67566;42.022;21.356;2023-08-31T01:18:29;12.02;;;4.97;;
78308;SDS011;67566;42.022;21.356;2023-08-31T01:21:09;8.65;;;4.45;;
78308;SDS011;67566;42.022;21.356;2023-08-31T01:23:52;9.18;;;5.35;;
78308;SDS011;67566;42.022;21.356;2023-08-31T01:26:19;10.30;;;4.40;;
78308;SDS011;67566;42.022;21.356;2023-08-31T01:28:46;9.27;;;5.47;;
78308;SDS011;67566;42.022;21.356;2023-08-31T01:31:12;10.57;;;5.45;;
78308;SDS011;67566;42.022;21.356;2023-08-31T01:33:38;11.18;;;5.78;;
78308;SDS011;67566;42.022;21.356;2023-08-31T01:36:05;13.38;;;5.25;;
78308;SDS011;67566;42.022;21.356;2023-08-31T01:38:39;9.45;;;4.80;;
78308;SDS011;67566;42.022;21.356;2023-08-31T01:41:10;10.45;;;4.47;;
78308;SDS011;67566;42.022;21.356;2023-08-31T01:43:51;10.20;;;4.22;;
78308;SDS011;67566;42.022;21.356;2023-08-31T01:46:18;10.38;;;4.50;;
78308;SDS011;67566;42.022;21.356;2023-08-31T01:48:44;9.35;;;4.82;;
78308;SDS011;67566;42.022;21.356;2023-08-31T01:51:10;8.13;;;4.25;;
78308;SDS011;67566;42.022;21.356;2023-08-31T01:53:35;10.50;;;4.68;;
78308;SDS011;67566;42.022;21.356;2023-08-31T01:56:01;9.00;;;4.68;;
78308;SDS011;67566;42.022;21.356;2023-08-31T01:58:27;13.00;;;5.30;;
78308;SDS011;67566;42.022;21.356;2023-08-31T02:00:53;9.07;;;4.22;;
78308;SDS011;67566;42.022;21.356;2023-08-31T02:03:18;9.07;;;4.18;;
78308;SDS011;67566;42.022;21.356;2023-08-31T02:05:44;9.38;;;4.45;;
78308;SDS011;67566;42.022;21.356;2023-08-31T02:08:09;7.75;;;4.07;;
78308;SDS011;67566;42.022;21.356;2023-08-31T02:10:34;9.27;;;5.05;;
78308;SDS011;67566;42.022;21.356;2023-08-31T02:13:00;8.63;;;4.32;;
78308;SDS011;67566;42.022;21.356;2023-08-31T02:15:25;9.68;;;4.15;;
78308;SDS011;67566;42.022;21.356;2023-08-31T02:17:51;9.40;;;4.15;;
78308;SDS011;67566;42.022;21.356;2023-08-31T02:20:17;6.45;;;3.80;;
78308;SDS011;67566;42.022;21.356;2023-08-31T02:22:45;8.68;;;4.20;;
78308;SDS011;67566;42.022;21.356;2023-08-31T02:25:10;8.68;;;3.90;;
78308;SDS011;67566;42.022;21.356;2023-08-31T02:27:41;11.43;;;3.42;;
78308;SDS011;67566;42.022;21.356;2023-08-31T02:32:53;4.65;;;3.10;;
78308;SDS011;67566;42.022;21.356;2023-08-31T02:35:19;6.38;;;3.28;;
78308;SDS011;67566;42.022;21.356;2023-08-31T02:37:44;7.47;;;3.15;;
78308;SDS011;67566;42.022;21.356;2023-08-31T02:40:10;5.95;;;2.50;;
78308;SDS011;67566;42.022;21.356;2023-08-31T02:42:36;6.18;;;2.40;;
78308;SDS011;67566;42.022;21.356;2023-08-31T02:45:02;6.57;;;2.60;;
78308;SDS011;67566;42.022;21.356;2023-08-31T02:47:28;7.43;;;2.70;;
78308;SDS011;67566;42.022;21.356;2023-08-31T02:49:53;5.80;;;2.35;;
78308;SDS011;67566;42.022;21.356;2023-08-31T02:52:19;5.65;;;2.60;;
78308;SDS011;67566;42.022;21.356;2023-08-31T02:54:47;5.03;;;2.60;;
78308;SDS011;67566;42.022;21.356;2023-08-31T02:57:12;7.30;;;2.83;;
78308;SDS011;67566;42.022;21.356;2023-08-31T02:59:38;5.93;;;2.60;;
78308;SDS011;67566;42.022;21.356;2023-08-31T03:02:03;7.05;;;2.65;;
78308;SDS011;67566;42.022;21.356;2023-08-31T03:04:29;6.30;;;2.65;;
78308;SDS011;67566;42.022;21.356;2023-08-31T03:06:56;5.45;;;2.50;;
78308;SDS011;67566;42.022;21.356;2023-08-31T03:09:21;5.10;;;2.47;;
78308;SDS011;67566;42.022;21.356;2023-08-31T03:11:46;6.72;;;2.47;;
78308;SDS011;67566;42.022;21.356;2023-08-31T03:14:12;6.50;;;2.83;;
78308;SDS011;67566;42.022;21.356;2023-08-31T03:16:38;5.88;;;2.58;;
78308;SDS011;67566;42.022;21.356;2023-08-31T03:19:03;3.92;;;1.92;;
78308;SDS011;67566;42.022;21.356;2023-08-31T03:21:30;4.40;;;2.20;;
78308;SDS011;67566;42.022;21.356;2023-08-31T03:23:59;5.00;;;1.95;;
78308;SDS011;67566;42.022;21.356;2023-08-31T03:26:27;4.05;;;2.60;;
78308;SDS011;67566;42.022;21.356;2023-08-31T03:28:52;5.32;;;2.05;;
78308;SDS011;67566;42.022;21.356;2023-08-31T03:31:18;6.10;;;2.30;;
78308;SDS011;67566;42.022;21.356;2023-08-31T03:33:43;4.05;;;2.03;;
78308;SDS011;67566;42.022;21.356;2023-08-31T03:36:09;4.70;;;2.38;;
78308;SDS011;67566;42.022;21.356;2023-08-31T03:38:34;6.65;;;2.95;;
78308;SDS011;67566;42.022;21.356;2023-08-31T03:41:03;6.57;;;2.72;;
78308;SDS011;67566;42.022;21.356;2023-08-31T03:43:28;11.38;;;2.80;;
78308;SDS011;67566;42.022;21.356;2023-08-31T03:45:55;4.90;;;2.20;;
78308;SDS011;67566;42.022;21.356;2023-08-31T03:48:22;6.78;;;2.88;;
78308;SDS011;67566;42.022;21.356;2023-08-31T03:50:51;5.55;;;2.42;;
78308;SDS011;67566;42.022;21.356;2023-08-31T03:53:17;6.70;;;2.03;;
78308;SDS011;67566;42.022;21.356;2023-08-31T03:55:42;5.15;;;2.17;;
78308;SDS011;67566;42.022;21.356;2023-08-31T03:58:08;5.65;;;2.10;;
78308;SDS011;67566;42.022;21.356;2023-08-31T04:00:33;4.95;;;2.20;;
78308;SDS011;67566;42.022;21.356;2023-08-31T04:02:59;4.40;;;2.22;;
78308;SDS011;67566;42.022;21.356;2023-08-31T04:05:24;4.07;;;2.00;;
78308;SDS011;67566;42.022;21.356;2023-08-31T04:07:50;5.75;;;2.17;;
78308;SDS011;67566;42.022;21.356;2023-08-31T04:10:15;8.10;;;2.50;;
78308;SDS011;67566;42.022;21.356;2023-08-31T04:12:41;5.38;;;2.40;;
78308;SDS011;67566;42.022;21.356;2023-08-31T04:15:08;4.85;;;2.40;;
78308;SDS011;67566;42.022;21.356;2023-08-31T04:17:34;6.05;;;2.28;;
78308;SDS011;67566;42.022;21.356;2023-08-31T04:19:59;6.40;;;2.28;;
78308;SDS011;67566;42.022;21.356;2023-08-31T04:22:25;5.22;;;2.30;;
78308;SDS011;67566;42.022;21.356;2023-08-31T04:24:51;7.20;;;2.67;;
78308;SDS011;67566;42.022;21.356;2023-08-31T04:27:17;6.22;;;2.47;;
78308;SDS011;67566;42.022;21.356;2023-08-31T04:29:43;9.43;;;3.78;;
78308;SDS011;67566;42.022;21.356;2023-08-31T04:32:08;10.70;;;4.88;;
78308;SDS011;67566;42.022;21.356;2023-08-31T04:34:34;8.55;;;5.03;;
78308;SDS011;67566;42.022;21.356;2023-08-31T04:37:00;8.52;;;4.53;;
78308;SDS011;67566;42.022;21.356;2023-08-31T04:39:26;9.27;;;4.88;;
78308;SDS011;67566;42.022;21.356;2023-08-31T04:41:51;5.95;;;3.30;;
78308;SDS011;67566;42.022;21.356;2023-08-31T04:44:17;6.50;;;3.30;;
78308;SDS011;67566;42.022;21.356;2023-08-31T04:46:44;6.32;;;3.42;;
78308;SDS011;67566;42.022;21.356;2023-08-31T04:49:09;7.07;;;3.35;;
78308;SDS011;67566;42.022;21.356;2023-08-31T04:51:35;7.03;;;3.75;;
78308;SDS011;67566;42.022;21.356;2023-08-31T04:54:06;6.13;;;3.00;;
78308;SDS011;67566;42.022;21.356;2023-08-31T04:56:33;7.25;;;2.97;;
78308;SDS011;67566;42.022;21.356;2023-08-31T04:58:59;5.75;;;3.00;;
78308;SDS011;67566;42.022;21.356;2023-08-31T05:01:25;6.10;;;2.67;;
78308;SDS011;67566;42.022;21.356;2023-08-31T05:03:51;5.13;;;2.42;;
78308;SDS011;67566;42.022;21.356;2023-08-31T05:06:16;7.57;;;2.80;;
78308;SDS011;67566;42.022;21.356;2023-08-31T05:08:42;3.95;;;2.20;;
78308;SDS011;67566;42.022;21.356;2023-08-31T05:11:08;5.90;;;2.65;;
78308;SDS011;67566;42.022;21.356;2023-08-31T05:13:33;6.22;;;2.80;;
78308;SDS011;67566;42.022;21.356;2023-08-31T05:16:07;4.53;;;2.17;;
78308;SDS011;67566;42.022;21.356;2023-08-31T05:18:40;3.88;;;1.95;;
78308;SDS011;67566;42.022;21.356;2023-08-31T05:21:06;4.38;;;2.08;;
78308;SDS011;67566;42.022;21.356;2023-08-31T05:23:32;6.05;;;2.45;;
78308;SDS011;67566;42.022;21.356;2023-08-31T05:25:57;8.00;;;2.50;;
78308;SDS011;67566;42.022;21.356;2023-08-31T05:28:23;5.63;;;2.60;;
78308;SDS011;67566;42.022;21.356;2023-08-31T05:30:50;5.35;;;2.78;;
78308;SDS011;67566;42.022;21.356;2023-08-31T05:33:19;5.50;;;2.30;;
78308;SDS011;67566;42.022;21.356;2023-08-31T05:35:47;4.32;;;2.20;;
78308;SDS011;67566;42.022;21.356;2023-08-31T05:38:12;4.50;;;2.30;;
78308;SDS011;67566;42.022;21.356;2023-08-31T05:40:38;8.60;;;2.72;;
78308;SDS011;67566;42.022;21.356;2023-08-31T05:43:04;5.45;;;2.50;;
78308;SDS011;67566;42.022;21.356;2023-08-31T05:45:32;6.10;;;2.50;;
78308;SDS011;67566;42.022;21.356;2023-08-31T05:47:58;6.85;;;2.92;;
78308;SDS011;67566;42.022;21.356;2023-08-31T05:50:24;4.97;;;2.30;;
78308;SDS011;67566;42.022;21.356;2023-08-31T05:52:50;5.35;;;2.38;;
78308;SDS011;67566;42.022;21.356;2023-08-31T05:55:16;4.82;;;2.33;;
78308;SDS011;67566;42.022;21.356;2023-08-31T05:57:41;6.63;;;2.38;;
78308;SDS011;67566;42.022;21.356;2023-08-31T06:00:07;4.57;;;2.50;;
78308;SDS011;67566;42.022;21.356;2023-08-31T06:02:33;6.75;;;2.67;;
78308;SDS011;67566;42.022;21.356;2023-08-31T06:05:00;3.90;;;2.20;;
78308;SDS011;67566;42.022;21.356;2023-08-31T06:07:26;4.22;;;2.35;;
78308;SDS011;67566;42.022;21.356;2023-08-31T06:09:54;6.82;;;3.20;;
78308;SDS011;67566;42.022;21.356;2023-08-31T06:12:20;6.78;;;2.70;;
78308;SDS011;67566;42.022;21.356;2023-08-31T06:14:45;4.30;;;2.75;;
78308;SDS011;67566;42.022;21.356;2023-08-31T06:17:10;5.63;;;2.40;;
78308;SDS011;67566;42.022;21.356;2023-08-31T06:19:38;5.32;;;2.90;;
78308;SDS011;67566;42.022;21.356;2023-08-31T06:22:04;5.00;;;2.70;;
78308;SDS011;67566;42.022;21.356;2023-08-31T06:24:29;5.32;;;2.60;;
78308;SDS011;67566;42.022;21.356;2023-08-31T06:26:55;5.22;;;2.30;;
78308;SDS011;67566;42.022;21.356;2023-08-31T06:29:21;4.97;;;2.58;;
78308;SDS011;67566;42.022;21.356;2023-08-31T06:31:47;6.22;;;2.60;;
78308;SDS011;67566;42.022;21.356;2023-08-31T06:34:13;4.80;;;2.50;;
78308;SDS011;67566;42.022;21.356;2023-08-31T06:36:38;7.57;;;2.97;;
78308;SDS011;67566;42.022;21.356;2023-08-31T06:39:05;5.88;;;2.40;;
78308;SDS011;67566;42.022;21.356;2023-08-31T06:41:31;6.30;;;2.42;;
78308;SDS011;67566;42.022;21.356;2023-08-31T06:43:57;5.28;;;2.50;;
78308;SDS011;67566;42.022;21.356;2023-08-31T06:46:22;5.07;;;2.00;;
78308;SDS011;67566;42.022;21.356;2023-08-31T06:48:48;6.03;;;2.08;;
78308;SDS011;67566;42.022;21.356;2023-08-31T06:51:14;4.25;;;2.15;;
78308;SDS011;67566;42.022;21.356;2023-08-31T06:53:41;4.80;;;2.50;;
78308;SDS011;67566;42.022;21.356;2023-08-31T06:56:07;5.85;;;2.42;;
78308;SDS011;67566;42.022;21.356;2023-08-31T06:58:32;7.35;;;2.53;;
78308;SDS011;67566;42.022;21.356;2023-08-31T07:00:58;8.45;;;2.60;;
78308;SDS011;67566;42.022;21.356;2023-08-31T07:03:23;6.35;;;2.40;;
78308;SDS011;67566;42.022;21.356;2023-08-31T07:05:49;5.60;;;2.83;;
78308;SDS011;67566;42.022;21.356;2023-08-31T07:08:14;7.88;;;2.30;;
78308;SDS011;67566;42.022;21.356;2023-08-31T07:10:39;6.20;;;2.88;;
78308;SDS011;67566;42.022;21.356;2023-08-31T07:13:05;6.30;;;2.45;;
78308;SDS011;67566;42.022;21.356;2023-08-31T07:15:30;5.97;;;2.92;;
78308;SDS011;67566;42.022;21.356;2023-08-31T07:17:56;7.22;;;3.65;;
78308;SDS011;67566;42.022;21.356;2023-08-31T07:20:22;6.68;;;3.10;;
78308;SDS011;67566;42.022;21.356;2023-08-31T07:22:47;8.35;;;3.55;;
78308;SDS011;67566;42.022;21.356;2023-08-31T07:25:13;7.88;;;3.10;;
78308;SDS011;67566;42.022;21.356;2023-08-31T07:27:38;4.95;;;2.83;;
78308;SDS011;67566;42.022;21.356;2023-08-31T07:30:04;6.72;;;2.85;;
78308;SDS011;67566;42.022;21.356;2023-08-31T07:32:31;6.47;;;2.72;;
78308;SDS011;67566;42.022;21.356;2023-08-31T07:34:57;6.07;;;2.70;;
78308;SDS011;67566;42.022;21.356;2023-08-31T07:37:22;9.05;;;3.15;;
78308;SDS011;67566;42.022;21.356;2023-08-31T07:39:48;7.22;;;3.38;;
78308;SDS011;67566;42.022;21.356;2023-08-31T07:42:13;8.05;;;3.13;;
78308;SDS011;67566;42.022;21.356;2023-08-31T07:44:39;6.60;;;2.92;;
78308;SDS011;67566;42.022;21.356;2023-08-31T07:47:09;7.28;;;2.70;;
78308;SDS011;67566;42.022;21.356;2023-08-31T07:49:34;5.32;;;2.65;;
78308;SDS011;67566;42.022;21.356;2023-08-31T07:52:00;7.30;;;2.40;;
78308;SDS011;67566;42.022;21.356;2023-08-31T07:54:25;6.40;;;2.65;;
78308;SDS011;67566;42.022;21.356;2023-08-31T07:56:51;6.28;;;2.70;;
78308;SDS011;67566;42.022;21.356;2023-08-31T07:59:17;6.43;;;2.60;;
78308;SDS011;67566;42.022;21.356;2023-08-31T08:01:43;4.53;;;2.60;;
78308;SDS011;67566;42.022;21.356;2023-08-31T08:04:10;6.03;;;2.17;;
78308;SDS011;67566;42.022;21.356;2023-08-31T08:06:37;8.07;;;3.22;;
78308;SDS011;67566;42.022;21.356;2023-08-31T08:09:02;7.10;;;2.58;;
78308;SDS011;67566;42.022;21.356;2023-08-31T08:11:30;6.88;;;2.72;;
78308;SDS011;67566;42.022;21.356;2023-08-31T08:13:56;5.10;;;2.55;;
78308;SDS011;67566;42.022;21.356;2023-08-31T08:16:21;6.57;;;2.90;;
78308;SDS011;67566;42.022;21.356;2023-08-31T08:18:47;7.45;;;2.80;;
78308;SDS011;67566;42.022;21.356;2023-08-31T08:21:13;5.22;;;2.67;;
78308;SDS011;67566;42.022;21.356;2023-08-31T08:23:38;6.50;;;2.92;;
78308;SDS011;67566;42.022;21.356;2023-08-31T08:26:04;7.13;;;3.03;;
78308;SDS011;67566;42.022;21.356;2023-08-31T08:28:29;5.88;;;2.90;;
78308;SDS011;67566;42.022;21.356;2023-08-31T08:30:55;6.70;;;2.88;;
78308;SDS011;67566;42.022;21.356;2023-08-31T08:33:20;6.53;;;2.92;;
78308;SDS011;67566;42.022;21.356;2023-08-31T08:35:46;5.70;;;2.55;;
78308;SDS011;67566;42.022;21.356;2023-08-31T08:38:11;5.65;;;2.72;;
78308;SDS011;67566;42.022;21.356;2023-08-31T08:40:37;5.57;;;2.30;;
78308;SDS011;67566;42.022;21.356;2023-08-31T08:43:06;5.53;;;2.58;;
78308;SDS011;67566;42.022;21.356;2023-08-31T08:45:36;7.45;;;2.90;;
78308;SDS011;67566;42.022;21.356;2023-08-31T08:48:06;7.05;;;3.05;;
78308;SDS011;67566;42.022;21.356;2023-08-31T08:50:33;5.60;;;2.88;;
78308;SDS011;67566;42.022;21.356;2023-08-31T08:53:03;7.18;;;3.05;;
78308;SDS011;67566;42.022;21.356;2023-08-31T08:55:30;9.60;;;2.83;;
78308;SDS011;67566;42.022;21.356;2023-08-31T08:57:55;6.57;;;3.20;;
78308;SDS011;67566;42.022;21.356;2023-08-31T09:00:22;7.95;;;2.70;;
78308;SDS011;67566;42.022;21.356;2023-08-31T09:02:48;6.05;;;3.05;;
78308;SDS011;67566;42.022;21.356;2023-08-31T09:05:13;7.53;;;2.90;;
78308;SDS011;67566;42.022;21.356;2023-08-31T09:07:57;5.53;;;2.75;;
78308;SDS011;67566;42.022;21.356;2023-08-31T09:10:37;5.85;;;3.33;;
78308;SDS011;67566;42.022;21.356;2023-08-31T09:13:05;5.65;;;2.83;;
78308;SDS011;67566;42.022;21.356;2023-08-31T09:15:41;5.00;;;2.53;;
78308;SDS011;67566;42.022;21.356;2023-08-31T09:20:47;6.45;;;3.20;;
78308;SDS011;67566;42.022;21.356;2023-08-31T09:23:16;7.10;;;3.72;;
78308;SDS011;67566;42.022;21.356;2023-08-31T09:25:42;5.30;;;2.83;;
78308;SDS011;67566;42.022;21.356;2023-08-31T09:28:21;12.20;;;3.40;;
78308;SDS011;67566;42.022;21.356;2023-08-31T09:30:49;5.25;;;3.25;;
78308;SDS011;67566;42.022;21.356;2023-08-31T09:33:17;5.53;;;2.92;;
78308;SDS011;67566;42.022;21.356;2023-08-31T09:38:21;5.97;;;2.88;;
78308;SDS011;67566;42.022;21.356;2023-08-31T09:40:46;4.68;;;2.80;;
78308;SDS011;67566;42.022;21.356;2023-08-31T09:43:17;6.82;;;3.05;;
78308;SDS011;67566;42.022;21.356;2023-08-31T09:45:45;7.82;;;3.08;;
78308;SDS011;67566;42.022;21.356;2023-08-31T09:48:12;6.43;;;3.28;;
78308;SDS011;67566;42.022;21.356;2023-08-31T09:50:39;5.90;;;3.03;;
78308;SDS011;67566;42.022;21.356;2023-08-31T09:53:09;4.90;;;3.10;;
78308;SDS011;67566;42.022;21.356;2023-08-31T09:55:36;7.18;;;3.22;;
78308;SDS011;67566;42.022;21.356;2023-08-31T09:58:13;5.57;;;3.13;;
78308;SDS011;67566;42.022;21.356;2023-08-31T10:00:46;5.85;;;3.22;;
78308;SDS011;67566;42.022;21.356;2023-08-31T10:03:13;5.95;;;2.88;;
78308;SDS011;67566;42.022;21.356;2023-08-31T10:05:40;4.85;;;2.95;;
78308;SDS011;67566;42.022;21.356;2023-08-31T10:08:13;6.10;;;3.00;;
78308;SDS011;67566;42.022;21.356;2023-08-31T10:10:40;5.35;;;2.85;;
78308;SDS011;67566;42.022;21.356;2023-08-31T10:13:06;5.72;;;3.13;;
78308;SDS011;67566;42.022;21.356;2023-08-31T10:15:33;5.55;;;2.92;;
78308;SDS011;67566;42.022;21.356;2023-08-31T10:18:00;6.13;;;2.95;;
78308;SDS011;67566;42.022;21.356;2023-08-31T10:20:28;4.00;;;2.88;;
78308;SDS011;67566;42.022;21.356;2023-08-31T10:22:57;6.70;;;3.17;;
78308;SDS011;67566;42.022;21.356;2023-08-31T10:25:23;5.07;;;3.30;;
78308;SDS011;67566;42.022;21.356;2023-08-31T10:27:49;5.55;;;3.10;;
78308;SDS011;67566;42.022;21.356;2023-08-31T10:32:46;6.40;;;3.35;;
78308;SDS011;67566;42.022;21.356;2023-08-31T10:35:38;5.85;;;2.90;;
78308;SDS011;67566;42.022;21.356;2023-08-31T10:40:41;8.70;;;3.08;;
78308;SDS011;67566;42.022;21.356;2023-08-31T10:43:16;7.35;;;3.13;;
78308;SDS011;67566;42.022;21.356;2023-08-31T10:45:44;5.90;;;2.72;;
78308;SDS011;67566;42.022;21.356;2023-08-31T10:48:10;5.35;;;3.05;;
78308;SDS011;67566;42.022;21.356;2023-08-31T10:50:42;5.85;;;3.08;;
78308;SDS011;67566;42.022;21.356;2023-08-31T10:53:08;6.15;;;2.92;;
78308;SDS011;67566;42.022;21.356;2023-08-31T10:55:49;6.32;;;3.40;;
78308;SDS011;67566;42.022;21.356;2023-08-31T10:58:18;10.30;;;3.85;;
78308;SDS011;67566;42.022;21.356;2023-08-31T11:01:01;5.32;;;2.88;;
78308;SDS011;67566;42.022;21.356;2023-08-31T11:03:29;8.13;;;3.63;;
78308;SDS011;67566;42.022;21.356;2023-08-31T11:05:58;5.78;;;3.47;;
78308;SDS011;67566;42.022;21.356;2023-08-31T11:08:24;5.38;;;2.70;;
78308;SDS011;67566;42.022;21.356;2023-08-31T11:10:50;5.75;;;3.13;;
78308;SDS011;67566;42.022;21.356;2023-08-31T11:13:18;5.25;;;2.78;;
78308;SDS011;67566;42.022;21.356;2023-08-31T11:15:47;5.57;;;3.10;;
78308;SDS011;67566;42.022;21.356;2023-08-31T11:18:12;5.93;;;3.03;;
78308;SDS011;67566;42.022;21.356;2023-08-31T11:20:41;6.55;;;3.30;;
78308;SDS011;67566;42.022;21.356;2023-08-31T11:23:07;5.50;;;2.88;;
78308;SDS011;67566;42.022;21.356;2023-08-31T11:25:33;6.60;;;3.42;;
78308;SDS011;67566;42.022;21.356;2023-08-31T11:28:02;9.30;;;3.20;;
78308;SDS011;67566;42.022;21.356;2023-08-31T11:30:31;10.02;;;3.10;;
78308;SDS011;67566;42.022;21.356;2023-08-31T11:33:00;6.03;;;3.25;;
78308;SDS011;67566;42.022;21.356;2023-08-31T11:35:40;6.35;;;2.92;;
78308;SDS011;67566;42.022;21.356;2023-08-31T11:38:09;5.90;;;3.03;;
78308;SDS011;67566;42.022;21.356;2023-08-31T11:40:36;5.43;;;3.35;;
78308;SDS011;67566;42.022;21.356;2023-08-31T11:43:02;8.65;;;3.35;;
78308;SDS011;67566;42.022;21.356;2023-08-31T11:45:30;7.43;;;2.80;;
78308;SDS011;67566;42.022;21.356;2023-08-31T11:47:57;5.68;;;2.85;;
78308;SDS011;67566;42.022;21.356;2023-08-31T11:50:23;4.10;;;2.60;;
78308;SDS011;67566;42.022;21.356;2023-08-31T11:52:50;4.68;;;2.80;;
78308;SDS011;67566;42.022;21.356;2023-08-31T11:55:19;6.65;;;2.58;;
78308;SDS011;67566;42.022;21.356;2023-08-31T11:57:49;4.63;;;2.50;;
78308;SDS011;67566;42.022;21.356;2023-08-31T12:00:18;5.65;;;3.13;;
78308;SDS011;67566;42.022;21.356;2023-08-31T12:02:45;6.30;;;2.75;;
78308;SDS011;67566;42.022;21.356;2023-08-31T12:05:14;4.72;;;2.80;;
78308;SDS011;67566;42.022;21.356;2023-08-31T12:07:39;5.43;;;2.78;;
78308;SDS011;67566;42.022;21.356;2023-08-31T12:10:06;5.70;;;2.88;;
78308;SDS011;67566;42.022;21.356;2023-08-31T12:12:33;5.03;;;2.60;;
78308;SDS011;67566;42.022;21.356;2023-08-31T12:15:00;6.13;;;2.50;;
78308;SDS011;67566;42.022;21.356;2023-08-31T12:17:29;4.28;;;2.10;;
78308;SDS011;67566;42.022;21.356;2023-08-31T12:20:02;4.07;;;2.55;;
78308;SDS011;67566;42.022;21.356;2023-08-31T12:22:31;7.05;;;2.83;;
78308;SDS011;67566;42.022;21.356;2023-08-31T12:24:56;8.45;;;3.33;;
78308;SDS011;67566;42.022;21.356;2023-08-31T12:27:22;5.43;;;2.47;;
78308;SDS011;67566;42.022;21.356;2023-08-31T12:29:47;6.07;;;2.80;;
78308;SDS011;67566;42.022;21.356;2023-08-31T12:32:14;5.35;;;2.20;;
78308;SDS011;67566;42.022;21.356;2023-08-31T12:34:40;4.85;;;2.58;;
78308;SDS011;67566;42.022;21.356;2023-08-31T12:37:05;5.55;;;2.50;;
78308;SDS011;67566;42.022;21.356;2023-08-31T12:39:31;5.75;;;2.30;;
78308;SDS011;67566;42.022;21.356;2023-08-31T12:41:57;3.75;;;2.20;;
78308;SDS011;67566;42.022;21.356;2023-08-31T12:44:22;5.03;;;2.45;;
78308;SDS011;67566;42.022;21.356;2023-08-31T12:46:50;5.78;;;2.88;;
78308;SDS011;67566;42.022;21.356;2023-08-31T12:49:16;5.10;;;2.47;;
78308;SDS011;67566;42.022;21.356;2023-08-31T12:51:41;5.35;;;3.00;;
78308;SDS011;67566;42.022;21.356;2023-08-31T12:54:07;6.70;;;2.70;;
78308;SDS011;67566;42.022;21.356;2023-08-31T12:56:33;5.30;;;3.00;;
78308;SDS011;67566;42.022;21.356;2023-08-31T12:58:58;5.18;;;2.70;;
78308;SDS011;67566;42.022;21.356;2023-08-31T13:01:24;4.90;;;2.97;;
78308;SDS011;67566;42.022;21.356;2023-08-31T13:03:50;4.78;;;2.88;;
78308;SDS011;67566;42.022;21.356;2023-08-31T13:06:17;8.02;;;3.03;;
78308;SDS011;67566;42.022;21.356;2023-08-31T13:08:43;5.05;;;2.85;;
78308;SDS011;67566;42.022;21.356;2023-08-31T13:11:10;9.27;;;2.70;;
78308;SDS011;67566;42.022;21.356;2023-08-31T13:13:37;6.28;;;2.50;;
78308;SDS011;67566;42.022;21.356;2023-08-31T13:16:03;5.75;;;2.88;;
78308;SDS011;67566;42.022;21.356;2023-08-31T13:18:29;6.90;;;3.25;;
78308;SDS011;67566;42.022;21.356;2023-08-31T13:20:54;6.22;;;2.75;;
78308;SDS011;67566;42.022;21.356;2023-08-31T13:26:09;7.30;;;2.90;;
78308;SDS011;67566;42.022;21.356;2023-08-31T13:28:35;6.53;;;2.83;;
78308;SDS011;67566;42.022;21.356;2023-08-31T13:31:00;4.72;;;2.58;;
78308;SDS011;67566;42.022;21.356;2023-08-31T13:33:26;4.78;;;2.47;;
78308;SDS011;67566;42.022;21.356;2023-08-31T13:35:58;5.78;;;2.60;;
78308;SDS011;67566;42.022;21.356;2023-08-31T13:38:24;5.10;;;2.63;;
78308;SDS011;67566;42.022;21.356;2023-08-31T13:40:59;5.38;;;2.50;;
78308;SDS011;67566;42.022;21.356;2023-08-31T13:43:24;6.70;;;2.17;;
78308;SDS011;67566;42.022;21.356;2023-08-31T13:45:50;5.35;;;2.60;;
78308;SDS011;67566;42.022;21.356;2023-08-31T13:48:16;6.15;;;2.30;;
78308;SDS011;67566;42.022;21.356;2023-08-31T13:50:46;6.72;;;2.40;;
78308;SDS011;67566;42.022;21.356;2023-08-31T13:53:14;5.38;;;2.40;;
78308;SDS011;67566;42.022;21.356;2023-08-31T13:55:44;5.20;;;2.50;;
78308;SDS011;67566;42.022;21.356;2023-08-31T13:58:16;3.97;;;2.40;;
78308;SDS011;67566;42.022;21.356;2023-08-31T14:00:42;4.70;;;2.50;;
78308;SDS011;67566;42.022;21.356;2023-08-31T14:03:08;6.10;;;2.63;;
78308;SDS011;67566;42.022;21.356;2023-08-31T14:05:35;5.63;;;2.70;;
78308;SDS011;67566;42.022;21.356;2023-08-31T14:08:01;5.88;;;2.90;;
78308;SDS011;67566;42.022;21.356;2023-08-31T14:10:32;5.78;;;2.45;;
78308;SDS011;67566;42.022;21.356;2023-08-31T14:12:58;4.45;;;2.53;;
78308;SDS011;67566;42.022;21.356;2023-08-31T14:15:24;4.53;;;2.53;;
78308;SDS011;67566;42.022;21.356;2023-08-31T14:17:50;6.95;;;2.78;;
78308;SDS011;67566;42.022;21.356;2023-08-31T14:20:18;5.25;;;2.63;;
78308;SDS011;67566;42.022;21.356;2023-08-31T14:22:44;4.95;;;2.58;;
78308;SDS011;67566;42.022;21.356;2023-08-31T14:25:10;7.10;;;2.85;;
78308;SDS011;67566;42.022;21.356;2023-08-31T14:27:36;4.63;;;2.17;;
78308;SDS011;67566;42.022;21.356;2023-08-31T14:30:02;5.60;;;2.58;;
78308;SDS011;67566;42.022;21.356;2023-08-31T14:32:28;3.47;;;2.17;;
78308;SDS011;67566;42.022;21.356;2023-08-31T14:34:54;8.98;;;2.83;;
78308;SDS011;67566;42.022;21.356;2023-08-31T14:37:20;6.60;;;2.85;;
78308;SDS011;67566;42.022;21.356;2023-08-31T14:39:53;5.47;;;2.67;;
78308;SDS011;67566;42.022;21.356;2023-08-31T14:42:19;5.18;;;2.72;;
78308;SDS011;67566;42.022;21.356;2023-08-31T14:44:48;5.22;;;2.40;;
78308;SDS011;67566;42.022;21.356;2023-08-31T14:47:14;5.18;;;2.38;;
78308;SDS011;67566;42.022;21.356;2023-08-31T14:49:40;4.97;;;2.60;;
78308;SDS011;67566;42.022;21.356;2023-08-31T14:52:05;4.60;;;3.03;;
78308;SDS011;67566;42.022;21.356;2023-08-31T14:54:31;5.05;;;2.38;;
78308;SDS011;67566;42.022;21.356;2023-08-31T14:56:58;3.55;;;2.47;;